sensor_id;sensor_type;location;lat;lon;timestamp;P1;durP1;ratioP1;P2;durP2;ratioP2
82038;SDS011;71610;42.628;23.378;2024-03-02T00:00:10;9.55;;;7.60;;
82038;SDS011;71610;42.628;23.378;2024-03-02T00:02:42;8.93;;;7.45;;
82038;SDS011;71610;42.628;23.378;2024-03-02T00:05:12;10.90;;;7.93;;
82038;SDS011;71610;42.628;23.378;2024-03-02T00:07:41;9.10;;;7.57;;
82038;SDS011;71610;42.628;23.378;2024-03-02T00:10:08;8.02;;;7.18;;
82038;SDS011;71610;42.628;23.378;2024-03-02T00:12:40;11.18;;;7.85;;
82038;SDS011;71610;42.628;23.378;2024-03-02T00:15:15;9.25;;;7.80;;
82038;SDS011;71610;42.628;23.378;2024-03-02T00:18:00;8.95;;;7.60;;
82038;SDS011;71610;42.628;23.378;2024-03-02T00:20:26;9.60;;;7.80;;
82038;SDS011;71610;42.628;23.378;2024-03-02T00:23:06;8.93;;;7.55;;
82038;SDS011;71610;42.628;23.378;2024-03-02T00:25:39;9.18;;;7.72;;
82038;SDS011;71610;42.628;23.378;2024-03-02T00:33:21;9.57;;;7.70;;
82038;SDS011;71610;42.628;23.378;2024-03-02T00:35:48;8.68;;;7.75;;
82038;SDS011;71610;42.628;23.378;2024-03-02T00:38:14;8.93;;;7.45;;
82038;SDS011;71610;42.628;23.378;2024-03-02T00:40:41;8.50;;;7.50;;
82038;SDS011;71610;42.628;23.378;2024-03-02T00:46:07;11.05;;;8.00;;
82038;SDS011;71610;42.628;23.378;2024-03-02T00:48:33;8.90;;;7.13;;
82038;SDS011;71610;42.628;23.378;2024-03-02T00:51:04;9.15;;;7.47;;
82038;SDS011;71610;42.628;23.378;2024-03-02T00:53:31;9.38;;;7.85;;
82038;SDS011;71610;42.628;23.378;2024-03-02T00:56:00;8.43;;;7.47;;
82038;SDS011;71610;42.628;23.378;2024-03-02T00:58:26;9.23;;;7.63;;
82038;SDS011;71610;42.628;23.378;2024-03-02T01:00:52;9.68;;;7.88;;
82038;SDS011;71610;42.628;23.378;2024-03-02T01:03:18;9.07;;;7.70;;
82038;SDS011;71610;42.628;23.378;2024-03-02T01:05:44;9.13;;;7.93;;
82038;SDS011;71610;42.628;23.378;2024-03-02T01:08:10;10.85;;;7.47;;
82038;SDS011;71610;42.628;23.378;2024-03-02T01:10:36;11.85;;;8.07;;
82038;SDS011;71610;42.628;23.378;2024-03-02T01:13:04;10.65;;;8.15;;
82038;SDS011;71610;42.628;23.378;2024-03-02T01:15:29;9.07;;;7.40;;
82038;SDS011;71610;42.628;23.378;2024-03-02T01:17:55;8.70;;;7.18;;
82038;SDS011;71610;42.628;23.378;2024-03-02T01:20:21;9.50;;;7.38;;
82038;SDS011;71610;42.628;23.378;2024-03-02T01:22:47;9.10;;;8.20;;
82038;SDS011;71610;42.628;23.378;2024-03-02T01:25:13;9.30;;;7.40;;
82038;SDS011;71610;42.628;23.378;2024-03-02T01:27:39;9.68;;;7.65;;
82038;SDS011;71610;42.628;23.378;2024-03-02T01:30:05;9.10;;;7.55;;
82038;SDS011;71610;42.628;23.378;2024-03-02T01:32:31;8.65;;;7.28;;
82038;SDS011;71610;42.628;23.378;2024-03-02T01:34:57;9.10;;;7.32;;
82038;SDS011;71610;42.628;23.378;2024-03-02T01:37:23;9.27;;;7.28;;
82038;SDS011;71610;42.628;23.378;2024-03-02T01:39:48;9.50;;;7.60;;
82038;SDS011;71610;42.628;23.378;2024-03-02T01:42:14;8.23;;;7.22;;
82038;SDS011;71610;42.628;23.378;2024-03-02T01:44:40;8.07;;;7.25;;
82038;SDS011;71610;42.628;23.378;2024-03-02T01:47:06;9.32;;;7.57;;
82038;SDS011;71610;42.628;23.378;2024-03-02T01:49:32;9.30;;;7.22;;
82038;SDS011;71610;42.628;23.378;2024-03-02T01:51:59;9.25;;;7.25;;
82038;SDS011;71610;42.628;23.378;2024-03-02T01:54:24;8.27;;;7.10;;
82038;SDS011;71610;42.628;23.378;2024-03-02T01:56:50;8.48;;;7.25;;
82038;SDS011;71610;42.628;23.378;2024-03-02T01:59:16;8.63;;;7.00;;
82038;SDS011;71610;42.628;23.378;2024-03-02T02:01:42;9.73;;;7.78;;
82038;SDS011;71610;42.628;23.378;2024-03-02T02:04:08;8.80;;;7.53;;
82038;SDS011;71610;42.628;23.378;2024-03-02T02:06:33;8.20;;;6.93;;
82038;SDS011;71610;42.628;23.378;2024-03-02T02:09:00;8.38;;;7.13;;
82038;SDS011;71610;42.628;23.378;2024-03-02T02:11:26;9.07;;;7.32;;
82038;SDS011;71610;42.628;23.378;2024-03-02T02:13:51;10.63;;;7.32;;
82038;SDS011;71610;42.628;23.378;2024-03-02T02:16:20;8.63;;;7.60;;
82038;SDS011;71610;42.628;23.378;2024-03-02T02:18:46;8.90;;;7.60;;
82038;SDS011;71610;42.628;23.378;2024-03-02T02:21:12;9.10;;;7.68;;
82038;SDS011;71610;42.628;23.378;2024-03-02T02:23:38;7.32;;;6.45;;
82038;SDS011;71610;42.628;23.378;2024-03-02T02:26:03;8.82;;;7.25;;
82038;SDS011;71610;42.628;23.378;2024-03-02T02:28:29;7.90;;;7.07;;
82038;SDS011;71610;42.628;23.378;2024-03-02T02:30:55;8.48;;;6.65;;
82038;SDS011;71610;42.628;23.378;2024-03-02T02:33:21;8.15;;;6.93;;
82038;SDS011;71610;42.628;23.378;2024-03-02T02:35:47;8.77;;;7.43;;
82038;SDS011;71610;42.628;23.378;2024-03-02T02:38:13;11.80;;;7.50;;
82038;SDS011;71610;42.628;23.378;2024-03-02T02:40:39;9.82;;;7.97;;
82038;SDS011;71610;42.628;23.378;2024-03-02T02:43:04;9.48;;;7.40;;
82038;SDS011;71610;42.628;23.378;2024-03-02T02:45:32;8.23;;;7.22;;
82038;SDS011;71610;42.628;23.378;2024-03-02T02:47:57;9.30;;;6.80;;
82038;SDS011;71610;42.628;23.378;2024-03-02T02:50:23;7.30;;;6.57;;
82038;SDS011;71610;42.628;23.378;2024-03-02T02:52:49;7.65;;;6.55;;
82038;SDS011;71610;42.628;23.378;2024-03-02T02:55:15;8.90;;;7.45;;
82038;SDS011;71610;42.628;23.378;2024-03-02T02:57:41;7.80;;;6.93;;
82038;SDS011;71610;42.628;23.378;2024-03-02T03:00:11;8.43;;;7.00;;
82038;SDS011;71610;42.628;23.378;2024-03-02T03:02:41;8.65;;;7.10;;
82038;SDS011;71610;42.628;23.378;2024-03-02T03:05:11;8.13;;;7.32;;
82038;SDS011;71610;42.628;23.378;2024-03-02T03:07:41;8.40;;;7.00;;
82038;SDS011;71610;42.628;23.378;2024-03-02T03:10:07;8.68;;;6.97;;
82038;SDS011;71610;42.628;23.378;2024-03-02T03:12:34;9.27;;;7.30;;
82038;SDS011;71610;42.628;23.378;2024-03-02T03:15:00;8.73;;;7.30;;
82038;SDS011;71610;42.628;23.378;2024-03-02T03:17:28;7.85;;;6.93;;
82038;SDS011;71610;42.628;23.378;2024-03-02T03:19:53;7.80;;;6.93;;
82038;SDS011;71610;42.628;23.378;2024-03-02T03:22:20;8.68;;;6.97;;
82038;SDS011;71610;42.628;23.378;2024-03-02T03:24:45;8.65;;;6.70;;
82038;SDS011;71610;42.628;23.378;2024-03-02T03:27:11;8.20;;;6.93;;
82038;SDS011;71610;42.628;23.378;2024-03-02T03:29:37;10.18;;;7.50;;
82038;SDS011;71610;42.628;23.378;2024-03-02T03:32:03;8.75;;;7.43;;
82038;SDS011;71610;42.628;23.378;2024-03-02T03:34:32;7.53;;;6.70;;
82038;SDS011;71610;42.628;23.378;2024-03-02T03:36:58;8.98;;;7.10;;
82038;SDS011;71610;42.628;23.378;2024-03-02T03:39:24;8.85;;;7.30;;
82038;SDS011;71610;42.628;23.378;2024-03-02T03:41:50;9.05;;;6.85;;
82038;SDS011;71610;42.628;23.378;2024-03-02T03:44:16;9.38;;;7.15;;
82038;SDS011;71610;42.628;23.378;2024-03-02T03:46:41;8.93;;;7.13;;
82038;SDS011;71610;42.628;23.378;2024-03-02T03:49:07;7.97;;;7.00;;
82038;SDS011;71610;42.628;23.378;2024-03-02T03:51:33;9.70;;;7.43;;
82038;SDS011;71610;42.628;23.378;2024-03-02T03:54:00;7.78;;;6.60;;
82038;SDS011;71610;42.628;23.378;2024-03-02T03:56:26;7.97;;;6.85;;
82038;SDS011;71610;42.628;23.378;2024-03-02T03:58:52;9.23;;;7.18;;
82038;SDS011;71610;42.628;23.378;2024-03-02T04:01:18;8.50;;;7.10;;
82038;SDS011;71610;42.628;23.378;2024-03-02T04:03:43;8.48;;;6.68;;
82038;SDS011;71610;42.628;23.378;2024-03-02T04:06:10;7.78;;;6.45;;
82038;SDS011;71610;42.628;23.378;2024-03-02T04:08:35;7.57;;;6.78;;
82038;SDS011;71610;42.628;23.378;2024-03-02T04:11:01;9.05;;;7.43;;
82038;SDS011;71610;42.628;23.378;2024-03-02T04:13:28;7.50;;;6.60;;
82038;SDS011;71610;42.628;23.378;2024-03-02T04:15:53;7.50;;;6.72;;
82038;SDS011;71610;42.628;23.378;2024-03-02T04:18:19;8.38;;;7.03;;
82038;SDS011;71610;42.628;23.378;2024-03-02T04:20:45;9.10;;;6.78;;
82038;SDS011;71610;42.628;23.378;2024-03-02T04:23:10;9.95;;;7.13;;
82038;SDS011;71610;42.628;23.378;2024-03-02T04:25:36;8.30;;;6.88;;
82038;SDS011;71610;42.628;23.378;2024-03-02T04:28:02;7.50;;;6.70;;
82038;SDS011;71610;42.628;23.378;2024-03-02T04:30:28;7.30;;;6.53;;
82038;SDS011;71610;42.628;23.378;2024-03-02T04:32:53;7.60;;;6.80;;
82038;SDS011;71610;42.628;23.378;2024-03-02T04:35:19;8.13;;;6.20;;
82038;SDS011;71610;42.628;23.378;2024-03-02T04:37:46;7.30;;;6.25;;
82038;SDS011;71610;42.628;23.378;2024-03-02T04:40:12;8.60;;;6.90;;
82038;SDS011;71610;42.628;23.378;2024-03-02T04:42:37;7.60;;;6.63;;
82038;SDS011;71610;42.628;23.378;2024-03-02T04:45:03;8.70;;;6.93;;
82038;SDS011;71610;42.628;23.378;2024-03-02T04:47:29;7.20;;;6.47;;
82038;SDS011;71610;42.628;23.378;2024-03-02T04:49:55;8.73;;;7.05;;
82038;SDS011;71610;42.628;23.378;2024-03-02T04:52:21;9.32;;;7.13;;
82038;SDS011;71610;42.628;23.378;2024-03-02T04:54:46;8.38;;;6.70;;
82038;SDS011;71610;42.628;23.378;2024-03-02T04:57:30;6.93;;;6.22;;
82038;SDS011;71610;42.628;23.378;2024-03-02T04:59:58;8.20;;;6.70;;
82038;SDS011;71610;42.628;23.378;2024-03-02T05:02:23;8.93;;;6.38;;
82038;SDS011;71610;42.628;23.378;2024-03-02T05:04:49;8.00;;;7.18;;
82038;SDS011;71610;42.628;23.378;2024-03-02T05:07:15;8.55;;;6.72;;
82038;SDS011;71610;42.628;23.378;2024-03-02T05:09:41;7.63;;;6.88;;
82038;SDS011;71610;42.628;23.378;2024-03-02T05:12:07;7.60;;;6.60;;
82038;SDS011;71610;42.628;23.378;2024-03-02T05:14:51;7.85;;;7.05;;
82038;SDS011;71610;42.628;23.378;2024-03-02T05:17:17;7.97;;;6.80;;
82038;SDS011;71610;42.628;23.378;2024-03-02T05:19:42;8.43;;;7.03;;
82038;SDS011;71610;42.628;23.378;2024-03-02T05:22:08;7.07;;;6.32;;
82038;SDS011;71610;42.628;23.378;2024-03-02T05:24:34;7.25;;;6.55;;
82038;SDS011;71610;42.628;23.378;2024-03-02T05:27:00;7.57;;;6.40;;
82038;SDS011;71610;42.628;23.378;2024-03-02T05:29:25;7.60;;;6.47;;
82038;SDS011;71610;42.628;23.378;2024-03-02T05:31:51;7.15;;;6.05;;
82038;SDS011;71610;42.628;23.378;2024-03-02T05:34:17;7.10;;;6.38;;
82038;SDS011;71610;42.628;23.378;2024-03-02T05:36:43;7.10;;;6.22;;
82038;SDS011;71610;42.628;23.378;2024-03-02T05:39:09;7.50;;;6.30;;
82038;SDS011;71610;42.628;23.378;2024-03-02T05:41:35;7.72;;;6.75;;
82038;SDS011;71610;42.628;23.378;2024-03-02T05:44:01;6.95;;;6.25;;
82038;SDS011;71610;42.628;23.378;2024-03-02T05:46:27;7.28;;;6.45;;
82038;SDS011;71610;42.628;23.378;2024-03-02T05:48:53;7.40;;;6.53;;
82038;SDS011;71610;42.628;23.378;2024-03-02T05:51:18;9.13;;;6.65;;
82038;SDS011;71610;42.628;23.378;2024-03-02T05:53:44;6.90;;;6.20;;
82038;SDS011;71610;42.628;23.378;2024-03-02T05:56:10;7.32;;;6.45;;
82038;SDS011;71610;42.628;23.378;2024-03-02T05:58:37;7.25;;;6.10;;
82038;SDS011;71610;42.628;23.378;2024-03-02T06:01:18;7.38;;;6.60;;
82038;SDS011;71610;42.628;23.378;2024-03-02T06:03:44;9.13;;;6.45;;
82038;SDS011;71610;42.628;23.378;2024-03-02T06:06:10;6.55;;;5.93;;
82038;SDS011;71610;42.628;23.378;2024-03-02T06:08:36;7.90;;;6.60;;
82038;SDS011;71610;42.628;23.378;2024-03-02T06:11:01;7.10;;;6.15;;
82038;SDS011;71610;42.628;23.378;2024-03-02T06:13:27;7.35;;;6.30;;
82038;SDS011;71610;42.628;23.378;2024-03-02T06:15:53;6.93;;;6.15;;
82038;SDS011;71610;42.628;23.378;2024-03-02T06:18:19;7.82;;;6.35;;
82038;SDS011;71610;42.628;23.378;2024-03-02T06:20:44;6.93;;;6.22;;
82038;SDS011;71610;42.628;23.378;2024-03-02T06:23:10;8.73;;;6.28;;
82038;SDS011;71610;42.628;23.378;2024-03-02T06:25:36;7.25;;;6.43;;
82038;SDS011;71610;42.628;23.378;2024-03-02T06:28:02;6.93;;;6.22;;
82038;SDS011;71610;42.628;23.378;2024-03-02T06:30:29;8.02;;;6.60;;
82038;SDS011;71610;42.628;23.378;2024-03-02T06:32:55;8.45;;;6.45;;
82038;SDS011;71610;42.628;23.378;2024-03-02T06:35:20;7.57;;;6.53;;
82038;SDS011;71610;42.628;23.378;2024-03-02T06:37:46;8.10;;;6.32;;
82038;SDS011;71610;42.628;23.378;2024-03-02T06:40:12;7.63;;;6.20;;
82038;SDS011;71610;42.628;23.378;2024-03-02T06:42:38;7.28;;;6.40;;
82038;SDS011;71610;42.628;23.378;2024-03-02T06:45:03;8.70;;;6.35;;
82038;SDS011;71610;42.628;23.378;2024-03-02T06:47:29;6.90;;;6.20;;
82038;SDS011;71610;42.628;23.378;2024-03-02T06:49:55;6.68;;;5.97;;
82038;SDS011;71610;42.628;23.378;2024-03-02T06:52:22;6.35;;;5.55;;
82038;SDS011;71610;42.628;23.378;2024-03-02T06:54:48;7.32;;;6.28;;
82038;SDS011;71610;42.628;23.378;2024-03-02T06:57:14;6.63;;;5.95;;
82038;SDS011;71610;42.628;23.378;2024-03-02T06:59:41;7.57;;;6.43;;
82038;SDS011;71610;42.628;23.378;2024-03-02T07:02:07;7.00;;;6.05;;
82038;SDS011;71610;42.628;23.378;2024-03-02T07:04:33;8.80;;;6.65;;
82038;SDS011;71610;42.628;23.378;2024-03-02T07:06:59;7.70;;;6.28;;
82038;SDS011;71610;42.628;23.378;2024-03-02T07:09:25;6.45;;;5.85;;
82038;SDS011;71610;42.628;23.378;2024-03-02T07:11:51;7.45;;;6.47;;
82038;SDS011;71610;42.628;23.378;2024-03-02T07:14:17;7.82;;;6.45;;
82038;SDS011;71610;42.628;23.378;2024-03-02T07:16:42;6.78;;;5.90;;
82038;SDS011;71610;42.628;23.378;2024-03-02T07:19:08;6.93;;;6.22;;
82038;SDS011;71610;42.628;23.378;2024-03-02T07:21:34;7.65;;;6.25;;
82038;SDS011;71610;42.628;23.378;2024-03-02T07:24:00;8.82;;;6.30;;
82038;SDS011;71610;42.628;23.378;2024-03-02T07:26:28;7.07;;;6.28;;
82038;SDS011;71610;42.628;23.378;2024-03-02T07:28:56;7.57;;;6.22;;
82038;SDS011;71610;42.628;23.378;2024-03-02T07:31:22;7.47;;;6.18;;
82038;SDS011;71610;42.628;23.378;2024-03-02T07:33:47;8.18;;;6.45;;
82038;SDS011;71610;42.628;23.378;2024-03-02T07:36:13;7.43;;;6.63;;
82038;SDS011;71610;42.628;23.378;2024-03-02T07:38:39;7.50;;;6.13;;
82038;SDS011;71610;42.628;23.378;2024-03-02T07:41:05;8.52;;;6.65;;
82038;SDS011;71610;42.628;23.378;2024-03-02T07:43:32;8.60;;;6.80;;
82038;SDS011;71610;42.628;23.378;2024-03-02T07:45:58;8.02;;;6.47;;
82038;SDS011;71610;42.628;23.378;2024-03-02T07:48:24;7.00;;;5.97;;
82038;SDS011;71610;42.628;23.378;2024-03-02T07:50:50;7.75;;;6.53;;
82038;SDS011;71610;42.628;23.378;2024-03-02T07:53:16;7.20;;;6.03;;
82038;SDS011;71610;42.628;23.378;2024-03-02T07:55:42;7.70;;;6.50;;
82038;SDS011;71610;42.628;23.378;2024-03-02T07:58:08;7.45;;;5.95;;
82038;SDS011;71610;42.628;23.378;2024-03-02T08:00:34;7.43;;;6.13;;
82038;SDS011;71610;42.628;23.378;2024-03-02T08:03:00;10.32;;;6.32;;
82038;SDS011;71610;42.628;23.378;2024-03-02T08:05:26;7.90;;;6.55;;
82038;SDS011;71610;42.628;23.378;2024-03-02T08:07:52;7.65;;;6.85;;
82038;SDS011;71610;42.628;23.378;2024-03-02T08:10:18;7.13;;;6.35;;
82038;SDS011;71610;42.628;23.378;2024-03-02T08:12:44;7.68;;;6.38;;
82038;SDS011;71610;42.628;23.378;2024-03-02T08:15:10;8.88;;;6.63;;
82038;SDS011;71610;42.628;23.378;2024-03-02T08:17:38;8.60;;;6.80;;
82038;SDS011;71610;42.628;23.378;2024-03-02T08:20:10;7.90;;;6.30;;
82038;SDS011;71610;42.628;23.378;2024-03-02T08:22:36;7.15;;;5.88;;
82038;SDS011;71610;42.628;23.378;2024-03-02T08:25:03;8.52;;;6.85;;
82038;SDS011;71610;42.628;23.378;2024-03-02T08:27:29;7.03;;;6.32;;
82038;SDS011;71610;42.628;23.378;2024-03-02T08:29:57;7.68;;;6.82;;
82038;SDS011;71610;42.628;23.378;2024-03-02T08:32:22;7.07;;;6.25;;
82038;SDS011;71610;42.628;23.378;2024-03-02T08:34:48;7.63;;;6.82;;
82038;SDS011;71610;42.628;23.378;2024-03-02T08:37:14;8.45;;;6.70;;
82038;SDS011;71610;42.628;23.378;2024-03-02T08:39:40;7.43;;;6.63;;
82038;SDS011;71610;42.628;23.378;2024-03-02T08:42:06;8.27;;;6.72;;
82038;SDS011;71610;42.628;23.378;2024-03-02T08:44:32;7.22;;;6.53;;
82038;SDS011;71610;42.628;23.378;2024-03-02T08:46:58;8.85;;;6.70;;
82038;SDS011;71610;42.628;23.378;2024-03-02T08:49:24;8.18;;;6.85;;
82038;SDS011;71610;42.628;23.378;2024-03-02T08:51:50;7.35;;;6.30;;
82038;SDS011;71610;42.628;23.378;2024-03-02T08:54:22;10.02;;;6.75;;
82038;SDS011;71610;42.628;23.378;2024-03-02T08:56:51;7.57;;;6.78;;
82038;SDS011;71610;42.628;23.378;2024-03-02T08:59:17;6.83;;;6.13;;
82038;SDS011;71610;42.628;23.378;2024-03-02T09:01:43;8.73;;;6.22;;
82038;SDS011;71610;42.628;23.378;2024-03-02T09:04:10;9.18;;;6.47;;
82038;SDS011;71610;42.628;23.378;2024-03-02T09:06:36;9.95;;;6.38;;
82038;SDS011;71610;42.628;23.378;2024-03-02T09:09:01;8.27;;;6.38;;
82038;SDS011;71610;42.628;23.378;2024-03-02T09:11:27;7.38;;;6.47;;
82038;SDS011;71610;42.628;23.378;2024-03-02T09:13:54;7.93;;;6.45;;
82038;SDS011;71610;42.628;23.378;2024-03-02T09:16:21;6.90;;;6.20;;
82038;SDS011;71610;42.628;23.378;2024-03-02T09:18:46;7.10;;;6.40;;
82038;SDS011;71610;42.628;23.378;2024-03-02T09:21:12;8.25;;;6.68;;
82038;SDS011;71610;42.628;23.378;2024-03-02T09:23:38;6.65;;;5.68;;
82038;SDS011;71610;42.628;23.378;2024-03-02T09:26:05;7.40;;;6.60;;
82038;SDS011;71610;42.628;23.378;2024-03-02T09:28:31;7.05;;;6.35;;
82038;SDS011;71610;42.628;23.378;2024-03-02T09:30:56;7.85;;;6.40;;
82038;SDS011;71610;42.628;23.378;2024-03-02T09:33:22;8.13;;;6.00;;
82038;SDS011;71610;42.628;23.378;2024-03-02T09:35:48;7.00;;;6.28;;
82038;SDS011;71610;42.628;23.378;2024-03-02T09:38:14;7.63;;;6.03;;
82038;SDS011;71610;42.628;23.378;2024-03-02T09:40:40;8.38;;;6.55;;
82038;SDS011;71610;42.628;23.378;2024-03-02T09:43:07;7.80;;;6.45;;
82038;SDS011;71610;42.628;23.378;2024-03-02T09:45:33;8.02;;;6.47;;
82038;SDS011;71610;42.628;23.378;2024-03-02T09:47:59;8.55;;;7.00;;
82038;SDS011;71610;42.628;23.378;2024-03-02T09:50:25;7.88;;;6.72;;
82038;SDS011;71610;42.628;23.378;2024-03-02T09:52:51;6.68;;;5.97;;
82038;SDS011;71610;42.628;23.378;2024-03-02T09:55:18;7.72;;;6.22;;
82038;SDS011;71610;42.628;23.378;2024-03-02T09:57:45;7.60;;;6.28;;
82038;SDS011;71610;42.628;23.378;2024-03-02T10:00:12;7.25;;;6.35;;
82038;SDS011;71610;42.628;23.378;2024-03-02T10:02:40;9.05;;;6.47;;
82038;SDS011;71610;42.628;23.378;2024-03-02T10:05:07;6.85;;;6.05;;
82038;SDS011;71610;42.628;23.378;2024-03-02T10:07:33;8.02;;;6.43;;
82038;SDS011;71610;42.628;23.378;2024-03-02T10:10:00;6.80;;;5.70;;
82038;SDS011;71610;42.628;23.378;2024-03-02T10:12:41;6.50;;;5.88;;
82038;SDS011;71610;42.628;23.378;2024-03-02T10:15:06;7.57;;;6.45;;
82038;SDS011;71610;42.628;23.378;2024-03-02T10:17:34;7.88;;;6.10;;
82038;SDS011;71610;42.628;23.378;2024-03-02T10:20:04;6.93;;;5.82;;
82038;SDS011;71610;42.628;23.378;2024-03-02T10:22:54;7.53;;;6.53;;
82038;SDS011;71610;42.628;23.378;2024-03-02T10:25:34;9.10;;;5.85;;
82038;SDS011;71610;42.628;23.378;2024-03-02T10:28:00;6.40;;;5.80;;
82038;SDS011;71610;42.628;23.378;2024-03-02T10:30:27;6.82;;;6.05;;
82038;SDS011;71610;42.628;23.378;2024-03-02T10:32:56;8.43;;;6.72;;
82038;SDS011;71610;42.628;23.378;2024-03-02T10:35:22;7.95;;;6.40;;
82038;SDS011;71610;42.628;23.378;2024-03-02T10:37:49;7.03;;;6.15;;
82038;SDS011;71610;42.628;23.378;2024-03-02T10:40:15;8.02;;;6.47;;
82038;SDS011;71610;42.628;23.378;2024-03-02T10:42:41;6.68;;;5.95;;
82038;SDS011;71610;42.628;23.378;2024-03-02T10:45:09;7.55;;;6.22;;
82038;SDS011;71610;42.628;23.378;2024-03-02T10:47:38;6.10;;;5.40;;
82038;SDS011;71610;42.628;23.378;2024-03-02T10:50:07;6.57;;;5.88;;
82038;SDS011;71610;42.628;23.378;2024-03-02T10:52:36;6.40;;;5.53;;
82038;SDS011;71610;42.628;23.378;2024-03-02T10:55:08;7.25;;;6.03;;
82038;SDS011;71610;42.628;23.378;2024-03-02T10:58:08;6.43;;;5.75;;
82038;SDS011;71610;42.628;23.378;2024-03-02T11:00:31;8.02;;;6.57;;
82038;SDS011;71610;42.628;23.378;2024-03-02T11:03:08;7.65;;;6.22;;
82038;SDS011;71610;42.628;23.378;2024-03-02T11:05:36;6.80;;;5.57;;
82038;SDS011;71610;42.628;23.378;2024-03-02T11:08:07;6.40;;;5.43;;
82038;SDS011;71610;42.628;23.378;2024-03-02T11:10:48;7.03;;;5.47;;
82038;SDS011;71610;42.628;23.378;2024-03-02T11:13:16;7.40;;;6.25;;
82038;SDS011;71610;42.628;23.378;2024-03-02T11:15:59;7.47;;;5.97;;
82038;SDS011;71610;42.628;23.378;2024-03-02T11:18:29;7.60;;;6.10;;
82038;SDS011;71610;42.628;23.378;2024-03-02T11:20:55;7.85;;;6.05;;
82038;SDS011;71610;42.628;23.378;2024-03-02T11:23:31;6.93;;;6.22;;
82038;SDS011;71610;42.628;23.378;2024-03-02T11:26:17;7.75;;;6.25;;
82038;SDS011;71610;42.628;23.378;2024-03-02T11:28:44;7.13;;;6.35;;
82038;SDS011;71610;42.628;23.378;2024-03-02T11:31:10;6.97;;;6.05;;
82038;SDS011;71610;42.628;23.378;2024-03-02T11:33:36;6.38;;;5.57;;
82038;SDS011;71610;42.628;23.378;2024-03-02T11:36:02;6.53;;;5.65;;
82038;SDS011;71610;42.628;23.378;2024-03-02T11:38:29;7.28;;;6.20;;
82038;SDS011;71610;42.628;23.378;2024-03-02T11:40:57;7.88;;;5.72;;
82038;SDS011;71610;42.628;23.378;2024-03-02T11:43:26;7.22;;;6.05;;
82038;SDS011;71610;42.628;23.378;2024-03-02T11:46:14;7.57;;;6.07;;
82038;SDS011;71610;42.628;23.378;2024-03-02T11:48:39;7.05;;;5.78;;
82038;SDS011;71610;42.628;23.378;2024-03-02T11:51:05;6.82;;;5.65;;
82038;SDS011;71610;42.628;23.378;2024-03-02T11:53:31;6.75;;;6.03;;
82038;SDS011;71610;42.628;23.378;2024-03-02T11:56:00;8.82;;;6.97;;
82038;SDS011;71610;42.628;23.378;2024-03-02T11:58:27;8.15;;;5.47;;
82038;SDS011;71610;42.628;23.378;2024-03-02T12:00:53;8.57;;;5.95;;
82038;SDS011;71610;42.628;23.378;2024-03-02T12:03:21;6.55;;;5.60;;
82038;SDS011;71610;42.628;23.378;2024-03-02T12:05:51;6.18;;;5.57;;
82038;SDS011;71610;42.628;23.378;2024-03-02T12:08:19;6.25;;;5.53;;
82038;SDS011;71610;42.628;23.378;2024-03-02T12:10:56;6.28;;;5.68;;
82038;SDS011;71610;42.628;23.378;2024-03-02T12:13:25;6.38;;;5.70;;
82038;SDS011;71610;42.628;23.378;2024-03-02T12:15:53;6.25;;;5.30;;
82038;SDS011;71610;42.628;23.378;2024-03-02T12:18:22;6.57;;;5.65;;
82038;SDS011;71610;42.628;23.378;2024-03-02T12:20:49;6.22;;;5.47;;
82038;SDS011;71610;42.628;23.378;2024-03-02T12:23:21;5.97;;;5.32;;
82038;SDS011;71610;42.628;23.378;2024-03-02T12:25:47;5.93;;;5.20;;
82038;SDS011;71610;42.628;23.378;2024-03-02T12:28:13;6.22;;;5.63;;
82038;SDS011;71610;42.628;23.378;2024-03-02T12:30:39;6.35;;;5.50;;
82038;SDS011;71610;42.628;23.378;2024-03-02T12:33:05;6.57;;;5.72;;
82038;SDS011;71610;42.628;23.378;2024-03-02T12:35:30;7.32;;;5.72;;
82038;SDS011;71610;42.628;23.378;2024-03-02T12:37:56;6.72;;;6.03;;
82038;SDS011;71610;42.628;23.378;2024-03-02T12:40:23;7.07;;;5.60;;
82038;SDS011;71610;42.628;23.378;2024-03-02T12:42:49;6.50;;;5.75;;
82038;SDS011;71610;42.628;23.378;2024-03-02T12:45:15;6.45;;;5.43;;
82038;SDS011;71610;42.628;23.378;2024-03-02T12:47:48;6.15;;;5.50;;
82038;SDS011;71610;42.628;23.378;2024-03-02T12:50:14;6.93;;;5.75;;
82038;SDS011;71610;42.628;23.378;2024-03-02T12:52:40;6.68;;;5.68;;
82038;SDS011;71610;42.628;23.378;2024-03-02T12:55:06;6.25;;;4.80;;
82038;SDS011;71610;42.628;23.378;2024-03-02T12:57:32;5.82;;;5.22;;
82038;SDS011;71610;42.628;23.378;2024-03-02T12:59:59;5.95;;;5.35;;
82038;SDS011;71610;42.628;23.378;2024-03-02T13:02:29;6.72;;;5.50;;
82038;SDS011;71610;42.628;23.378;2024-03-02T13:07:25;7.53;;;6.03;;
82038;SDS011;71610;42.628;23.378;2024-03-02T13:09:52;6.90;;;5.30;;
82038;SDS011;71610;42.628;23.378;2024-03-02T13:12:20;6.90;;;5.65;;
82038;SDS011;71610;42.628;23.378;2024-03-02T13:14:53;5.50;;;5.00;;
82038;SDS011;71610;42.628;23.378;2024-03-02T13:17:19;6.25;;;5.38;;
82038;SDS011;71610;42.628;23.378;2024-03-02T13:19:52;5.75;;;5.15;;
82038;SDS011;71610;42.628;23.378;2024-03-02T13:22:21;6.40;;;5.40;;
82038;SDS011;71610;42.628;23.378;2024-03-02T13:24:47;5.70;;;5.05;;
82038;SDS011;71610;42.628;23.378;2024-03-02T13:27:15;6.22;;;5.22;;
82038;SDS011;71610;42.628;23.378;2024-03-02T13:29:44;5.55;;;5.05;;
82038;SDS011;71610;42.628;23.378;2024-03-02T13:32:11;6.03;;;5.43;;
82038;SDS011;71610;42.628;23.378;2024-03-02T13:34:37;5.40;;;4.90;;
82038;SDS011;71610;42.628;23.378;2024-03-02T13:37:03;5.90;;;5.30;;
82038;SDS011;71610;42.628;23.378;2024-03-02T13:39:30;6.82;;;5.68;;
82038;SDS011;71610;42.628;23.378;2024-03-02T13:42:05;5.75;;;5.18;;
82038;SDS011;71610;42.628;23.378;2024-03-02T13:44:34;5.35;;;4.85;;
82038;SDS011;71610;42.628;23.378;2024-03-02T13:47:00;7.38;;;5.60;;
82038;SDS011;71610;42.628;23.378;2024-03-02T13:49:26;5.72;;;5.22;;
82038;SDS011;71610;42.628;23.378;2024-03-02T13:52:00;6.78;;;5.18;;
82038;SDS011;71610;42.628;23.378;2024-03-02T13:54:28;6.20;;;5.60;;
82038;SDS011;71610;42.628;23.378;2024-03-02T13:56:55;6.25;;;5.47;;
82038;SDS011;71610;42.628;23.378;2024-03-02T13:59:23;5.88;;;5.20;;
82038;SDS011;71610;42.628;23.378;2024-03-02T14:01:49;5.80;;;5.20;;
82038;SDS011;71610;42.628;23.378;2024-03-02T14:04:15;5.88;;;4.95;;
82038;SDS011;71610;42.628;23.378;2024-03-02T14:06:42;5.30;;;4.80;;
82038;SDS011;71610;42.628;23.378;2024-03-02T14:09:08;6.75;;;5.40;;
82038;SDS011;71610;42.628;23.378;2024-03-02T14:11:34;6.30;;;5.20;;
82038;SDS011;71610;42.628;23.378;2024-03-02T14:14:00;6.25;;;5.30;;
82038;SDS011;71610;42.628;23.378;2024-03-02T14:16:27;5.97;;;5.30;;
82038;SDS011;71610;42.628;23.378;2024-03-02T14:18:53;6.05;;;5.15;;
82038;SDS011;71610;42.628;23.378;2024-03-02T14:21:19;6.88;;;5.68;;
82038;SDS011;71610;42.628;23.378;2024-03-02T14:23:44;5.68;;;5.07;;
82038;SDS011;71610;42.628;23.378;2024-03-02T14:26:10;5.82;;;4.82;;
82038;SDS011;71610;42.628;23.378;2024-03-02T14:28:36;5.80;;;5.20;;
82038;SDS011;71610;42.628;23.378;2024-03-02T14:31:01;5.85;;;5.05;;
82038;SDS011;71610;42.628;23.378;2024-03-02T14:33:27;5.78;;;5.18;;
82038;SDS011;71610;42.628;23.378;2024-03-02T14:35:53;6.18;;;5.55;;
82038;SDS011;71610;42.628;23.378;2024-03-02T14:38:19;5.28;;;4.78;;
82038;SDS011;71610;42.628;23.378;2024-03-02T14:40:45;5.28;;;4.72;;
82038;SDS011;71610;42.628;23.378;2024-03-02T14:43:11;6.15;;;5.22;;